Aérodrome :
LOGIN :

S'inscrire | Disclaimer

   EN    FR    IT 

 










Légende :    VFR   VFR Marginal   IFR   IFR Intensif   IFR Très Intensif
Visi : 
Plafond : 
>= 8 km
>= 3000ft
5 à 8 km
1000 à 3000 ft
1500m à 5 km
500 à 1000 ft
800 à 1500m
200 à 500 ft
< 800m
< 200 ft
Symboles :   Orages  Brouillard  Fortes neiges  Fortes précipitations  Vent > 20 kt
SIGMETs :   Divers  Orages  Givrage  Turbulence  Onde Orograph.  Cendres Volcan.







- Altitude de l'aérodrome : 26 ft
- Code IATA : GAE


DTTG - Matmata

DERNIER METAR :
  • 211700Z 03003KT 9999 FEW020 22/18 Q1019 NOSIG

METARs EXPIRÉS :
  • 211600Z 03009KT 9999 FEW020 24/17 Q1018 NOSIG
  • 211500Z 04012KT 9999 SCT020 24/17 Q1018 NOSIG

TAF COR TAF DTTG
Valide du 21 à 16h jusqu'au 22 à 01h UTC


211536Z 2116/2201 05012KT 9999 SCT020
TEMPO 2116/22201 3000 TSRA FEW026CB
Pas de NOTAMs connus pour ce terrain.



MET'MAP, la Météo Aéronautique d'un coup d'oeil ! - Copyright ORBIFLY Décembre 2007 - Disclaimer

ORBIFLY MET'MAP TEAM :

Programmation & Développement : Alexandra Zaïnal
Conception & Développement : Baudouin d'Aumeries
Co-Programmation & Développement : Marc-Olivier Méhu
Soutien technique & logistique : Manuel Goepfert

Contact : metmap@orbifly.com




SOURCES & CREDITS :

   NOAA